createdAt,value
2023-01-30T00:00:31.346Z,22.80
2023-01-30T00:05:32.774Z,25.80
2023-01-30T00:10:34.239Z,29.73
2023-01-30T00:15:35.712Z,33.35
2023-01-30T00:20:37.198Z,29.35
2023-01-30T00:25:38.854Z,25.15
2023-01-30T00:30:40.372Z,14.18
2023-01-30T00:35:41.817Z,22.25
2023-01-30T00:40:43.275Z,22.98
2023-01-30T00:45:44.959Z,21.58
2023-01-30T00:50:46.452Z,18.48
2023-01-30T00:55:47.910Z,27.35
2023-01-30T01:00:49.335Z,24.90
2023-01-30T01:05:50.746Z,24.92
2023-01-30T01:10:52.199Z,25.67
2023-01-30T01:15:53.667Z,21.17
2023-01-30T01:20:55.099Z,27.75
2023-01-30T01:25:56.511Z,30.13
2023-01-30T01:30:57.981Z,23.52
2023-01-30T01:35:59.521Z,22.45
2023-01-30T01:41:01.008Z,21.67
2023-01-30T01:46:02.502Z,15.18
2023-01-30T01:51:04.020Z,21.65
2023-01-30T01:56:05.480Z,21.50
2023-01-30T02:01:07.004Z,23.63
2023-01-30T02:06:08.491Z,25.65
2023-01-30T02:11:09.945Z,23.75
2023-01-30T02:16:11.426Z,24.40
2023-01-30T02:21:12.933Z,27.60
2023-01-30T02:26:14.416Z,20.92
2023-01-30T02:31:15.931Z,23.35
2023-01-30T02:36:17.435Z,23.15
2023-01-30T02:41:18.850Z,23.98
2023-01-30T02:46:20.366Z,22.85
2023-01-30T02:51:22.048Z,21.60
2023-01-30T02:56:23.521Z,19.05
2023-01-30T03:01:24.990Z,23.40
2023-01-30T03:06:26.457Z,25.85
2023-01-30T03:11:27.923Z,21.02
2023-01-30T03:16:29.780Z,22.35
2023-01-30T03:21:31.242Z,22.52
2023-01-30T03:26:32.759Z,21.08
2023-01-30T03:31:34.364Z,17.23
2023-01-30T03:36:35.893Z,19.42
2023-01-30T03:41:37.535Z,17.45
2023-01-30T03:46:38.991Z,18.70
2023-01-30T03:51:40.459Z,23.33
2023-01-30T03:56:41.893Z,22.70
2023-01-30T04:01:43.335Z,17.75
2023-01-30T04:06:44.913Z,19.42
2023-01-30T04:11:46.364Z,20.00
2023-01-30T04:16:47.862Z,18.15
2023-01-30T04:21:49.329Z,21.27
2023-01-30T04:26:50.751Z,10.80
2023-01-30T04:31:52.213Z,18.20
2023-01-30T04:36:53.672Z,18.02
2023-01-30T04:41:55.407Z,22.52
2023-01-30T04:46:56.948Z,17.67
2023-01-30T04:51:58.366Z,19.30
2023-01-30T04:56:59.860Z,20.30
2023-01-30T05:02:01.389Z,19.40
2023-01-30T05:07:02.904Z,21.00
2023-01-30T05:12:04.369Z,20.98
2023-01-30T05:17:05.829Z,18.20
2023-01-30T05:22:07.307Z,18.10
2023-01-30T05:27:08.754Z,21.50
2023-01-30T05:32:10.199Z,15.50
2023-01-30T05:37:11.628Z,20.38
2023-01-30T05:42:13.061Z,23.45
2023-01-30T05:47:14.709Z,18.90
2023-01-30T05:52:16.219Z,16.00
2023-01-30T05:57:17.691Z,17.38
2023-01-30T06:02:19.119Z,21.65
2023-01-30T06:07:20.530Z,19.50
2023-01-30T06:12:21.943Z,20.63
2023-01-30T06:17:23.407Z,12.80
2023-01-30T06:22:24.843Z,19.05
2023-01-30T06:27:26.269Z,16.80
2023-01-30T06:32:27.749Z,21.02
2023-01-30T06:37:29.178Z,20.25
2023-01-30T06:42:30.636Z,13.95
2023-01-30T06:47:32.092Z,21.55
2023-01-30T06:52:33.619Z,20.50
2023-01-30T06:57:35.100Z,16.30
2023-01-30T07:02:36.561Z,21.90
2023-01-30T07:07:37.989Z,23.02
2023-01-30T07:12:39.493Z,21.58
2023-01-30T07:17:40.920Z,20.83
2023-01-30T07:22:42.363Z,22.17
2023-01-30T07:27:43.825Z,24.10
2023-01-30T07:32:45.443Z,20.75
2023-01-30T07:37:46.881Z,26.55
2023-01-30T07:42:48.350Z,26.50
2023-01-30T07:47:49.844Z,22.73
2023-01-30T07:52:51.291Z,28.33
2023-01-30T07:57:52.743Z,22.48
2023-01-30T08:02:54.161Z,31.10
2023-01-30T08:07:55.678Z,27.92
2023-01-30T08:12:57.121Z,27.15
2023-01-30T08:17:58.631Z,22.10
2023-01-30T08:23:00.106Z,15.15
2023-01-30T08:28:01.570Z,21.95
2023-01-30T08:33:03.070Z,24.45
2023-01-30T08:38:04.515Z,22.70
2023-01-30T08:43:05.986Z,27.98
2023-01-30T08:48:07.460Z,23.08
2023-01-30T08:53:08.886Z,20.33
2023-01-30T08:58:10.575Z,23.23
2023-01-30T09:03:12.003Z,23.20
2023-01-30T09:08:13.430Z,18.52
2023-01-30T09:13:14.855Z,21.33
2023-01-30T09:18:16.319Z,13.57
2023-01-30T09:23:17.766Z,21.98
2023-01-30T09:28:19.229Z,18.80
2023-01-30T09:33:20.679Z,11.32
2023-01-30T09:38:22.174Z,15.57
2023-01-30T09:43:23.605Z,21.70
2023-01-30T09:48:25.083Z,17.55
2023-01-30T09:53:26.583Z,21.52
2023-01-30T09:58:28.046Z,19.25
2023-01-30T10:03:29.550Z,14.30
2023-01-30T10:08:31.021Z,20.30
2023-01-30T10:13:32.465Z,12.55
2023-01-30T10:18:33.894Z,22.48
2023-01-30T10:23:35.337Z,17.38
2023-01-30T10:28:36.814Z,17.05
2023-01-30T10:33:38.281Z,17.42
2023-01-30T10:38:39.771Z,15.65
2023-01-30T10:43:41.241Z,14.98
2023-01-30T10:48:46.080Z,18.23
2023-01-30T10:53:48.200Z,18.50
2023-01-30T10:58:49.671Z,16.75
2023-01-30T11:03:51.145Z,15.55
2023-01-30T11:08:52.612Z,16.15
2023-01-30T11:13:54.076Z,15.48
2023-01-30T11:24:17.036Z,16.25
2023-01-30T11:29:18.538Z,24.98
2023-01-30T11:34:19.989Z,17.65
2023-01-30T11:39:21.423Z,19.17
2023-01-30T11:44:22.888Z,22.42
2023-01-30T11:49:45.891Z,18.27
2023-01-30T11:54:45.803Z,15.93
2023-01-30T11:59:47.260Z,13.65
2023-01-30T12:04:48.733Z,8.80
2023-01-30T12:09:50.174Z,13.70
2023-01-30T12:14:51.655Z,8.43
2023-01-30T12:19:53.095Z,7.43
2023-01-30T12:24:54.544Z,4.85
2023-01-30T12:29:56.014Z,6.38
2023-01-30T12:34:57.478Z,6.90
2023-01-30T12:39:58.955Z,4.63
2023-01-30T12:45:00.469Z,6.20
2023-01-30T12:50:01.960Z,9.57
2023-01-30T12:55:03.450Z,6.13
2023-01-30T13:00:04.936Z,6.93
2023-01-30T13:05:06.406Z,10.38
2023-01-30T13:10:07.872Z,8.65
2023-01-30T13:15:09.332Z,7.45
2023-01-30T13:20:10.806Z,5.93
2023-01-30T13:25:12.322Z,7.45
2023-01-30T13:30:13.824Z,6.45
2023-01-30T13:35:15.307Z,3.78
2023-01-30T13:40:17.046Z,5.22
2023-01-30T13:45:18.844Z,6.45
2023-01-30T13:50:20.679Z,10.80
2023-01-30T13:55:22.367Z,5.72
2023-01-30T14:00:23.864Z,3.13
2023-01-30T14:05:34.403Z,7.18
2023-01-30T14:10:38.677Z,10.85
2023-01-30T14:15:40.108Z,6.10
2023-01-30T14:20:41.530Z,7.13
2023-01-30T14:25:43.033Z,5.18
2023-01-30T14:30:44.507Z,6.60
2023-01-30T14:35:45.969Z,11.73
2023-01-30T14:40:47.404Z,5.50
2023-01-30T14:45:48.814Z,7.00
2023-01-30T14:50:50.496Z,5.50
2023-01-30T14:55:51.928Z,8.02
2023-01-30T15:00:53.433Z,7.90
2023-01-30T15:05:54.879Z,9.07
2023-01-30T15:10:56.299Z,7.38
2023-01-30T15:15:57.948Z,6.35
2023-01-30T15:20:59.419Z,7.22
2023-01-30T15:26:00.889Z,3.40
2023-01-30T15:31:02.356Z,7.22
2023-01-30T15:36:03.812Z,6.97
2023-01-30T15:41:05.250Z,8.00
2023-01-30T15:46:06.857Z,4.35
2023-01-30T15:51:08.351Z,4.38
2023-01-30T15:56:09.793Z,4.20
2023-01-30T16:01:11.334Z,6.75
2023-01-30T16:06:13.850Z,7.07
2023-01-30T16:11:15.279Z,7.53
2023-01-30T16:16:16.743Z,6.88
2023-01-30T16:21:18.198Z,8.65
2023-01-30T16:26:19.693Z,9.95
2023-01-30T16:31:21.299Z,5.18
2023-01-30T16:36:22.791Z,11.20
2023-01-30T16:41:24.242Z,9.05
2023-01-30T16:46:25.727Z,10.52
2023-01-30T16:51:27.181Z,12.98
2023-01-30T16:56:28.707Z,6.20
2023-01-30T17:01:30.229Z,6.90
2023-01-30T17:06:31.833Z,4.22
2023-01-30T17:11:33.308Z,6.28
2023-01-30T17:16:34.812Z,6.30
2023-01-30T17:21:36.279Z,6.53
2023-01-30T17:26:39.671Z,7.63
2023-01-30T17:31:42.300Z,7.18
2023-01-30T17:36:43.852Z,7.93
2023-01-30T17:41:45.279Z,6.68
2023-01-30T17:46:46.702Z,5.63
2023-01-30T17:51:48.149Z,3.85
2023-01-30T17:56:49.591Z,5.07
2023-01-30T18:01:51.093Z,7.18
2023-01-30T18:06:52.557Z,10.57
2023-01-30T18:11:54.000Z,6.55
2023-01-30T18:16:55.545Z,5.82
2023-01-30T18:21:57.036Z,6.30
2023-01-30T18:27:01.441Z,5.95
2023-01-30T18:32:03.279Z,7.65
2023-01-30T18:37:04.734Z,5.72
2023-01-30T18:42:06.164Z,5.15
2023-01-30T18:47:07.624Z,5.30
2023-01-30T18:52:09.093Z,6.25
2023-01-30T18:57:11.557Z,6.47
2023-01-30T19:02:13.044Z,5.75
2023-01-30T19:07:14.625Z,8.82
2023-01-30T19:12:16.082Z,9.40
2023-01-30T19:17:17.520Z,8.35
2023-01-30T19:22:18.942Z,10.25
2023-01-30T19:27:20.368Z,6.50
2023-01-30T19:32:22.292Z,10.65
2023-01-30T19:37:23.844Z,9.63
2023-01-30T19:42:25.641Z,9.73
2023-01-30T19:47:27.308Z,12.70
2023-01-30T19:52:28.743Z,11.25
2023-01-30T19:57:30.206Z,11.25
2023-01-30T20:02:31.764Z,12.32
2023-01-30T20:07:33.299Z,8.38
2023-01-30T20:12:34.771Z,10.05
2023-01-30T20:17:36.242Z,13.85
2023-01-30T20:22:37.722Z,13.40
2023-01-30T20:27:39.178Z,7.82
2023-01-30T20:32:40.657Z,7.78
2023-01-30T20:37:42.100Z,5.10
2023-01-30T20:42:43.543Z,7.20
2023-01-30T20:47:45.011Z,7.75
2023-01-30T20:52:46.513Z,8.77
2023-01-30T20:57:47.996Z,7.57
2023-01-30T21:02:49.478Z,7.43
2023-01-30T21:07:50.953Z,12.27
2023-01-30T21:12:52.409Z,6.25
2023-01-30T21:17:53.853Z,7.70
2023-01-30T21:22:55.297Z,4.78
2023-01-30T21:27:56.726Z,9.15
2023-01-30T21:32:58.527Z,6.20
2023-01-30T21:37:59.966Z,10.93
2023-01-30T21:43:01.379Z,7.05
2023-01-30T21:48:02.888Z,7.82
2023-01-30T21:53:04.373Z,8.80
2023-01-30T21:58:05.844Z,9.23
2023-01-30T22:03:07.293Z,7.32
2023-01-30T22:08:08.759Z,10.00
2023-01-30T22:13:10.220Z,11.20
2023-01-30T22:18:11.684Z,8.10
2023-01-30T22:23:13.152Z,9.23
2023-01-30T22:28:14.600Z,11.40
2023-01-30T22:33:16.065Z,6.90
2023-01-30T22:38:17.514Z,7.32
2023-01-30T22:43:18.962Z,14.20
2023-01-30T22:48:20.427Z,15.77
2023-01-30T22:53:21.972Z,9.48
2023-01-30T22:58:23.440Z,10.43
2023-01-30T23:03:24.909Z,16.17
2023-01-30T23:08:26.626Z,10.55
2023-01-30T23:13:28.095Z,8.88
2023-01-30T23:18:29.567Z,10.57
2023-01-30T23:23:31.021Z,15.25
2023-01-30T23:28:32.459Z,8.95
2023-01-30T23:33:33.888Z,14.05
2023-01-30T23:38:35.503Z,10.60
2023-01-30T23:43:37.535Z,16.65
2023-01-30T23:48:39.041Z,12.85
2023-01-30T23:53:40.496Z,8.88
2023-01-30T23:58:41.956Z,14.18
